createdAt,value
2023-02-12T00:01:29.030Z,102684.09
2023-02-12T00:03:57.713Z,102685.84
2023-02-12T00:06:26.003Z,102681.50
2023-02-12T00:08:55.887Z,102680.66
2023-02-12T00:11:29.752Z,102678.09
2023-02-12T00:13:58.456Z,102670.31
2023-02-12T00:16:29.150Z,102675.53
2023-02-12T00:18:58.779Z,102678.09
2023-02-12T00:21:27.697Z,102676.34
2023-02-12T00:23:56.653Z,102672.88
2023-02-12T00:26:24.986Z,102680.69
2023-02-12T00:28:54.163Z,102684.16
2023-02-12T00:31:27.371Z,102682.44
2023-02-12T00:33:58.207Z,102686.75
2023-02-12T00:36:29.871Z,102679.81
2023-02-12T00:38:57.677Z,102671.16
2023-02-12T00:41:26.393Z,102677.25
2023-02-12T00:43:54.167Z,102675.50
2023-02-12T00:46:22.417Z,102671.19
2023-02-12T00:48:50.769Z,102673.75
2023-02-12T00:51:21.338Z,102678.97
2023-02-12T00:53:49.306Z,102677.22
2023-02-12T00:56:17.475Z,102679.81
2023-02-12T00:58:45.109Z,102674.63
2023-02-12T01:01:13.149Z,102675.50
2023-02-12T01:03:41.120Z,102678.94
2023-02-12T01:06:09.975Z,102681.56
2023-02-12T01:08:38.203Z,102683.31
2023-02-12T01:11:06.486Z,102687.59
2023-02-12T01:13:36.101Z,102688.47
2023-02-12T01:16:10.793Z,102686.75
2023-02-12T01:18:38.909Z,102676.41
2023-02-12T01:21:17.102Z,102673.84
2023-02-12T01:23:46.019Z,102670.38
2023-02-12T01:26:15.610Z,102670.41
2023-02-12T01:28:45.094Z,102676.44
2023-02-12T01:31:17.335Z,102662.63
2023-02-12T01:33:48.452Z,102657.41
2023-02-12T01:36:16.643Z,102649.69
2023-02-12T01:38:44.319Z,102649.69
2023-02-12T01:41:33.497Z,102648.84
2023-02-12T01:44:22.374Z,102640.19
2023-02-12T01:46:56.183Z,102641.06
2023-02-12T01:49:29.103Z,102638.50
2023-02-12T01:52:04.761Z,102634.19
2023-02-12T01:54:34.946Z,102638.50
2023-02-12T01:57:04.835Z,102635.03
2023-02-12T01:59:33.422Z,102635.03
2023-02-12T02:02:01.468Z,102636.75
2023-02-12T02:04:32.887Z,102631.59
2023-02-12T02:07:03.676Z,102629.00
2023-02-12T02:09:35.315Z,102637.59
2023-02-12T02:12:22.065Z,102644.50
2023-02-12T02:14:52.504Z,102639.34
2023-02-12T02:17:38.673Z,102635.00
2023-02-12T02:20:15.155Z,102630.72
2023-02-12T02:23:12.848Z,102629.88
2023-02-12T02:25:43.956Z,102629.88
2023-02-12T02:28:31.030Z,102626.41
2023-02-12T02:31:12.406Z,102612.63
2023-02-12T02:34:12.485Z,102604.84
2023-02-12T02:37:00.506Z,102599.66
2023-02-12T02:39:40.873Z,102604.84
2023-02-12T02:42:16.669Z,102597.06
2023-02-12T02:44:49.080Z,102596.25
2023-02-12T02:47:20.740Z,102591.06
2023-02-12T02:49:59.984Z,102585.00
2023-02-12T02:53:09.285Z,102586.75
2023-02-12T02:55:43.688Z,102583.28
2023-02-12T02:58:27.101Z,102584.16
2023-02-12T03:01:04.780Z,102587.59
2023-02-12T03:03:44.753Z,102579.00
2023-02-12T03:06:27.399Z,102582.44
2023-02-12T03:09:05.490Z,102577.25
2023-02-12T03:11:35.074Z,102580.69
2023-02-12T03:14:08.706Z,102586.75
2023-02-12T03:16:44.315Z,102582.41
2023-02-12T03:19:20.783Z,102577.22
2023-02-12T03:21:57.955Z,102589.31
2023-02-12T03:24:38.944Z,102580.69
2023-02-12T03:27:08.823Z,102565.16
2023-02-12T03:29:36.653Z,102558.25
2023-02-12T03:32:16.641Z,102554.81
2023-02-12T03:35:15.487Z,102561.69
2023-02-12T03:37:52.805Z,102565.13
2023-02-12T03:40:46.166Z,102570.28
2023-02-12T03:43:24.113Z,102561.69
2023-02-12T03:46:09.136Z,102558.22
2023-02-12T03:49:24.135Z,102547.88
2023-02-12T03:51:51.498Z,102562.50
2023-02-12T03:54:21.915Z,102573.75
2023-02-12T03:56:58.981Z,102576.34
2023-02-12T03:59:28.032Z,102583.25
2023-02-12T04:01:59.192Z,102588.41
2023-02-12T04:04:27.837Z,102594.50
2023-02-12T04:06:56.531Z,102593.63
2023-02-12T04:09:26.732Z,102603.13
2023-02-12T04:12:10.459Z,102597.94
2023-02-12T04:15:15.891Z,102594.50
2023-02-12T04:18:02.687Z,102591.06
2023-02-12T04:20:47.875Z,102592.78
2023-02-12T04:23:23.112Z,102592.78
2023-02-12T04:26:11.435Z,102578.13
2023-02-12T04:28:57.773Z,102582.44
2023-02-12T04:31:45.112Z,102585.00
2023-02-12T04:34:47.407Z,102591.06
2023-02-12T04:37:19.381Z,102588.50
2023-02-12T04:39:49.174Z,102591.06
2023-02-12T04:42:17.324Z,102593.66
2023-02-12T04:44:46.044Z,102583.31
2023-02-12T04:47:16.425Z,102581.59
2023-02-12T04:49:44.632Z,102577.28
2023-02-12T04:52:12.756Z,102585.91
2023-02-12T04:54:40.340Z,102583.28
2023-02-12T04:57:09.921Z,102578.13
2023-02-12T04:59:37.850Z,102578.13
2023-02-12T05:02:05.518Z,102577.28
2023-02-12T05:04:34.126Z,102578.13
2023-02-12T05:07:01.793Z,102576.41
2023-02-12T05:09:29.445Z,102579.84
2023-02-12T05:11:57.000Z,102587.59
2023-02-12T05:14:25.902Z,102591.06
2023-02-12T05:16:53.902Z,102587.59
2023-02-12T05:19:21.879Z,102578.97
2023-02-12T05:21:51.955Z,102574.69
2023-02-12T05:24:19.586Z,102571.22
2023-02-12T05:26:49.048Z,102579.88
2023-02-12T05:29:16.974Z,102575.53
2023-02-12T05:31:45.077Z,102570.38
2023-02-12T05:34:14.668Z,102571.22
2023-02-12T05:36:42.253Z,102562.63
2023-02-12T05:39:10.636Z,102568.66
2023-02-12T05:41:38.301Z,102555.72
2023-02-12T05:44:07.052Z,102561.75
2023-02-12T05:46:35.055Z,102565.19
2023-02-12T05:49:03.804Z,102564.31
2023-02-12T05:51:32.262Z,102578.97
2023-02-12T05:54:03.837Z,102578.97
2023-02-12T05:56:37.654Z,102586.72
2023-02-12T05:59:09.070Z,102594.50
2023-02-12T06:01:40.006Z,102594.50
2023-02-12T06:04:14.975Z,102593.63
2023-02-12T06:06:43.162Z,102583.28
2023-02-12T06:09:12.640Z,102585.03
2023-02-12T06:11:41.132Z,102603.13
2023-02-12T06:14:13.536Z,102604.81
2023-02-12T06:16:41.970Z,102613.47
2023-02-12T06:19:10.349Z,102622.94
2023-02-12T06:21:38.583Z,102625.53
2023-02-12T06:24:06.147Z,102622.09
2023-02-12T06:26:34.756Z,102626.41
2023-02-12T06:29:02.803Z,102624.66
2023-02-12T06:31:33.116Z,102632.44
2023-02-12T06:34:05.101Z,102633.28
2023-02-12T06:36:33.047Z,102645.38
2023-02-12T06:39:02.827Z,102641.06
2023-02-12T06:41:31.073Z,102644.50
2023-02-12T06:43:58.671Z,102650.56
2023-02-12T06:46:27.072Z,102655.75
2023-02-12T06:49:00.210Z,102654.84
2023-02-12T06:51:29.393Z,102663.50
2023-02-12T06:53:57.740Z,102662.63
2023-02-12T06:56:27.106Z,102661.78
2023-02-12T06:58:57.765Z,102660.91
2023-02-12T07:01:27.639Z,102656.59
2023-02-12T07:03:57.878Z,102650.56
2023-02-12T07:06:27.091Z,102657.44
2023-02-12T07:08:56.589Z,102650.53
2023-02-12T07:11:26.394Z,102650.47
2023-02-12T07:13:54.586Z,102651.31
2023-02-12T07:16:22.945Z,102665.94
2023-02-12T07:18:50.689Z,102672.84
2023-02-12T07:21:19.361Z,102672.78
2023-02-12T07:23:51.193Z,102680.56
2023-02-12T07:26:21.168Z,102670.09
2023-02-12T07:28:51.125Z,102669.94
2023-02-12T07:31:23.787Z,102678.66
2023-02-12T07:33:56.704Z,102686.44
2023-02-12T07:36:25.996Z,102684.53
2023-02-12T07:38:55.022Z,102692.09
2023-02-12T07:41:26.225Z,102697.25
2023-02-12T07:43:57.533Z,102705.59
2023-02-12T07:46:29.939Z,102706.28
2023-02-12T07:49:00.468Z,102702.63
2023-02-12T07:51:29.063Z,102703.56
2023-02-12T07:53:57.073Z,102708.00
2023-02-12T07:56:32.574Z,102698.38
2023-02-12T07:59:03.009Z,102697.75
2023-02-12T08:01:37.037Z,102710.34
2023-02-12T08:04:09.158Z,102716.78
2023-02-12T08:06:41.881Z,102714.31
2023-02-12T08:09:12.621Z,102712.47
2023-02-12T08:11:41.833Z,102716.72
2023-02-12T08:14:13.194Z,102718.19
2023-02-12T08:16:42.978Z,102717.28
2023-02-12T08:19:19.018Z,102714.22
2023-02-12T08:21:52.865Z,102723.66
2023-02-12T08:24:22.444Z,102733.03
2023-02-12T08:26:51.790Z,102737.38
2023-02-12T08:29:44.859Z,102739.16
2023-02-12T08:32:14.456Z,102734.28
2023-02-12T08:34:42.448Z,102742.88
2023-02-12T08:37:10.009Z,102747.75
2023-02-12T08:39:38.270Z,102750.53
2023-02-12T08:42:05.990Z,102752.28
2023-02-12T08:44:34.075Z,102743.25
2023-02-12T08:47:01.557Z,102744.59
2023-02-12T08:49:30.923Z,102741.28
2023-02-12T08:52:01.938Z,102732.00
2023-02-12T08:54:31.558Z,102735.88
2023-02-12T08:57:01.631Z,102729.06
2023-02-12T08:59:29.572Z,102725.88
2023-02-12T09:01:57.383Z,102725.91
2023-02-12T09:04:27.735Z,102723.88
2023-02-12T09:06:56.594Z,102721.84
2023-02-12T09:09:24.566Z,102723.38
2023-02-12T09:11:52.368Z,102729.50
2023-02-12T09:14:24.631Z,102725.19
2023-02-12T09:16:57.291Z,102720.66
2023-02-12T09:19:25.656Z,102712.13
2023-02-12T09:21:56.096Z,102720.44
2023-02-12T09:24:25.600Z,102727.44
2023-02-12T09:26:54.246Z,102731.38
2023-02-12T09:29:22.303Z,102737.38
2023-02-12T09:31:50.128Z,102721.78
2023-02-12T09:34:18.061Z,102725.81
2023-02-12T09:36:45.626Z,102742.38
2023-02-12T09:39:13.241Z,102739.66
2023-02-12T09:42:14.236Z,102731.47
2023-02-12T09:44:47.836Z,102736.22
2023-02-12T09:47:31.598Z,102732.53
2023-02-12T09:50:57.820Z,102726.66
2023-02-12T09:53:31.565Z,102736.50
2023-02-12T09:55:59.901Z,102723.38
2023-02-12T09:58:38.928Z,102726.56
2023-02-12T10:01:15.006Z,102732.53
2023-02-12T10:03:44.462Z,102732.72
2023-02-12T10:06:26.421Z,102742.09
2023-02-12T10:09:58.932Z,102746.88
2023-02-12T10:12:32.291Z,102731.53
2023-02-12T10:15:24.789Z,102740.88
2023-02-12T10:18:06.232Z,102753.66
2023-02-12T10:20:48.617Z,102758.81
2023-02-12T10:23:22.641Z,102759.69
2023-02-12T10:25:54.149Z,102757.41
2023-02-12T10:28:40.017Z,102760.47
2023-02-12T10:31:39.378Z,102757.91
2023-02-12T10:34:21.413Z,102753.00
2023-02-12T10:36:52.824Z,102749.19
2023-02-12T10:39:31.599Z,102737.59
2023-02-12T10:42:44.773Z,102747.25
2023-02-12T10:45:15.407Z,102735.06
2023-02-12T10:47:45.170Z,102732.31
2023-02-12T10:50:32.825Z,102739.91
2023-02-12T10:53:03.532Z,102735.34
2023-02-12T10:55:34.552Z,102733.56
2023-02-12T10:58:05.010Z,102732.41
2023-02-12T11:00:38.046Z,102722.06
2023-02-12T11:03:21.491Z,102726.78
2023-02-12T11:05:50.202Z,102725.78
2023-02-12T11:08:34.315Z,102733.41
2023-02-12T11:11:19.711Z,102739.44
2023-02-12T11:14:04.999Z,102738.88
2023-02-12T11:16:34.994Z,102737.22
2023-02-12T11:19:08.597Z,102730.97
2023-02-12T11:21:36.824Z,102734.91
2023-02-12T11:24:26.080Z,102730.28
2023-02-12T11:27:12.459Z,102732.91
2023-02-12T11:29:41.675Z,102738.28
2023-02-12T11:32:16.983Z,102740.94
2023-02-12T11:34:44.689Z,102735.44
2023-02-12T11:37:19.005Z,102737.59
2023-02-12T11:39:53.056Z,102738.59
2023-02-12T11:42:24.236Z,102750.56
2023-02-12T11:45:00.047Z,102758.63
2023-02-12T11:47:34.404Z,102756.78
2023-02-12T11:50:16.105Z,102748.78
2023-02-12T11:52:48.276Z,102753.59
2023-02-12T11:55:32.294Z,102747.66
2023-02-12T11:58:12.860Z,102744.81
2023-02-12T12:00:53.788Z,102745.34
2023-02-12T12:03:37.862Z,102743.72
2023-02-12T12:06:17.498Z,102742.53
2023-02-12T12:09:04.004Z,102740.91
2023-02-12T12:11:51.524Z,102731.47
2023-02-12T12:14:34.799Z,102732.31
2023-02-12T12:17:34.078Z,102731.38
2023-02-12T12:20:04.445Z,102731.19
2023-02-12T12:22:54.514Z,102731.56
2023-02-12T12:25:28.248Z,102724.66
2023-02-12T12:28:08.468Z,102722.47
2023-02-12T12:31:08.572Z,102717.94
2023-02-12T12:33:39.561Z,102719.75
2023-02-12T12:36:13.665Z,102719.84
2023-02-12T12:38:41.219Z,102711.56
2023-02-12T12:41:52.234Z,102709.31
2023-02-12T12:44:56.893Z,102710.78
2023-02-12T12:47:43.461Z,102715.06
2023-02-12T12:50:34.951Z,102705.09
2023-02-12T12:53:02.682Z,102710.88
2023-02-12T12:55:49.036Z,102713.34
2023-02-12T12:58:49.135Z,102713.22
2023-02-12T13:01:41.674Z,102708.72
2023-02-12T13:04:48.911Z,102713.09
2023-02-12T13:07:44.638Z,102715.81
2023-02-12T13:10:18.167Z,102709.78
2023-02-12T13:13:21.140Z,102706.66
2023-02-12T13:16:10.639Z,102703.94
2023-02-12T13:18:44.471Z,102705.97
2023-02-12T13:21:49.587Z,102699.72
2023-02-12T13:24:37.591Z,102704.13
2023-02-12T13:27:16.180Z,102697.06
2023-02-12T13:29:52.560Z,102696.66
2023-02-12T13:32:30.890Z,102689.69
2023-02-12T13:35:01.758Z,102691.13
2023-02-12T13:37:47.244Z,102698.38
2023-02-12T13:40:22.728Z,102696.41
2023-02-12T13:43:22.943Z,102688.50
2023-02-12T13:45:59.709Z,102700.38
2023-02-12T13:48:44.943Z,102696.63
2023-02-12T13:51:16.117Z,102692.00
2023-02-12T13:53:58.989Z,102703.00
2023-02-12T13:56:32.787Z,102693.03
2023-02-12T13:59:01.127Z,102689.16
2023-02-12T14:01:34.984Z,102696.56
2023-02-12T14:04:29.165Z,102699.41
2023-02-12T14:07:01.165Z,102701.03
2023-02-12T14:09:35.486Z,102694.56
2023-02-12T14:12:06.848Z,102701.28
2023-02-12T14:14:39.461Z,102702.44
2023-02-12T14:17:39.691Z,102702.03
2023-02-12T14:20:09.006Z,102701.22
2023-02-12T14:22:44.074Z,102707.19
2023-02-12T14:25:14.947Z,102699.38
2023-02-12T14:27:43.746Z,102722.06
2023-02-12T14:30:12.453Z,102706.59
2023-02-12T14:32:53.810Z,102710.31
2023-02-12T14:35:28.089Z,102714.78
2023-02-12T14:38:16.129Z,102720.78
2023-02-12T14:40:48.634Z,102720.03
2023-02-12T14:43:57.471Z,102721.88
2023-02-12T14:46:25.120Z,102720.78
2023-02-12T14:49:07.554Z,102725.59
2023-02-12T14:51:45.448Z,102725.41
2023-02-12T14:54:18.671Z,102733.13
2023-02-12T14:56:49.324Z,102733.88
2023-02-12T14:59:22.124Z,102733.31
2023-02-12T15:01:51.732Z,102733.94
2023-02-12T15:04:32.167Z,102739.75
2023-02-12T15:07:08.380Z,102732.16
2023-02-12T15:09:57.123Z,102745.22
2023-02-12T15:12:41.342Z,102744.66
2023-02-12T15:15:37.484Z,102748.56
2023-02-12T15:18:46.041Z,102749.50
2023-02-12T15:21:21.956Z,102737.50
2023-02-12T15:24:07.321Z,102740.88
2023-02-12T15:26:45.225Z,102757.63
2023-02-12T15:29:49.718Z,102757.13
2023-02-12T15:32:25.625Z,102762.84
2023-02-12T15:34:55.045Z,102767.03
2023-02-12T15:37:31.313Z,102768.66
2023-02-12T15:40:03.983Z,102769.44
2023-02-12T15:42:35.055Z,102772.03
2023-02-12T15:45:14.704Z,102776.50
2023-02-12T15:47:44.120Z,102776.31
2023-02-12T15:50:17.260Z,102777.75
2023-02-12T15:52:46.996Z,102783.88
2023-02-12T15:55:18.177Z,102777.69
2023-02-12T15:57:58.863Z,102781.41
2023-02-12T16:00:41.257Z,102787.44
2023-02-12T16:03:24.290Z,102790.94
2023-02-12T16:05:56.999Z,102785.16
2023-02-12T16:08:25.880Z,102788.25
2023-02-12T16:10:56.241Z,102791.81
2023-02-12T16:13:35.744Z,102794.44
2023-02-12T16:16:13.379Z,102798.78
2023-02-12T16:18:43.513Z,102800.66
2023-02-12T16:21:22.880Z,102810.22
2023-02-12T16:23:52.583Z,102798.28
2023-02-12T16:26:25.992Z,102804.22
2023-02-12T16:28:58.152Z,102797.38
2023-02-12T16:31:27.757Z,102797.59
2023-02-12T16:33:59.292Z,102809.44
2023-02-12T16:36:30.908Z,102822.50
2023-02-12T16:39:08.567Z,102821.28
2023-02-12T16:41:55.199Z,102826.63
2023-02-12T16:44:29.599Z,102821.63
2023-02-12T16:47:00.922Z,102825.41
2023-02-12T16:49:29.432Z,102830.81
2023-02-12T16:52:29.956Z,102840.81
2023-02-12T16:54:57.571Z,102840.44
2023-02-12T16:57:25.623Z,102850.50
2023-02-12T16:59:53.182Z,102852.22
2023-02-12T17:02:21.274Z,102852.31
2023-02-12T17:04:49.358Z,102851.66
2023-02-12T17:07:23.339Z,102863.59
2023-02-12T17:09:51.052Z,102865.50
2023-02-12T17:12:19.369Z,102875.19
2023-02-12T17:14:47.425Z,102869.25
2023-02-12T17:17:16.053Z,102877.41
2023-02-12T17:19:43.685Z,102883.03
2023-02-12T17:22:22.184Z,102882.88
2023-02-12T17:24:51.684Z,102878.94
2023-02-12T17:27:20.523Z,102879.41
2023-02-12T17:29:48.534Z,102890.25
2023-02-12T17:32:16.431Z,102891.41
2023-02-12T17:34:48.632Z,102896.78
2023-02-12T17:37:18.233Z,102894.91
2023-02-12T17:39:46.300Z,102894.94
2023-02-12T17:42:15.215Z,102904.81
2023-02-12T17:44:43.731Z,102902.56
2023-02-12T17:47:11.273Z,102900.81
2023-02-12T17:49:40.015Z,102912.03
2023-02-12T17:52:08.055Z,102911.31
2023-02-12T17:54:36.765Z,102919.38
2023-02-12T17:57:04.418Z,102922.72
2023-02-12T17:59:32.535Z,102918.44
2023-02-12T18:02:00.954Z,102926.28
2023-02-12T18:04:28.954Z,102920.34
2023-02-12T18:06:57.054Z,102925.50
2023-02-12T18:09:25.235Z,102925.31
2023-02-12T18:11:53.833Z,102926.19
2023-02-12T18:14:22.069Z,102927.91
2023-02-12T18:16:50.057Z,102921.00
2023-02-12T18:19:17.846Z,102924.63
2023-02-12T18:21:46.017Z,102924.63
2023-02-12T18:24:14.138Z,102932.75
2023-02-12T18:26:42.985Z,102930.75
2023-02-12T18:29:10.811Z,102930.91
2023-02-12T18:31:38.643Z,102929.34
2023-02-12T18:34:08.245Z,102929.19
2023-02-12T18:36:36.451Z,102930.28
2023-02-12T18:39:04.670Z,102939.97
2023-02-12T18:41:33.361Z,102938.00
2023-02-12T18:44:00.980Z,102939.78
2023-02-12T18:46:30.619Z,102943.47
2023-02-12T18:48:59.518Z,102943.66
2023-02-12T18:51:30.838Z,102941.19
2023-02-12T18:54:05.284Z,102947.31
2023-02-12T18:56:36.792Z,102956.06
2023-02-12T18:59:06.505Z,102951.69
2023-02-12T19:01:35.786Z,102957.00
2023-02-12T19:04:06.103Z,102965.72
2023-02-12T19:06:38.610Z,102962.25
2023-02-12T19:09:06.589Z,102957.88
2023-02-12T19:11:35.093Z,102960.44
2023-02-12T19:14:03.580Z,102964.25
2023-02-12T19:16:33.438Z,102968.53
2023-02-12T19:19:02.860Z,102966.13
2023-02-12T19:21:31.280Z,102973.25
2023-02-12T19:24:01.497Z,102982.88
2023-02-12T19:26:30.869Z,102981.28
2023-02-12T19:28:59.949Z,102975.88
2023-02-12T19:31:36.845Z,102979.56
2023-02-12T19:34:17.030Z,102979.81
2023-02-12T19:36:44.734Z,102981.41
2023-02-12T19:39:19.415Z,102983.16
2023-02-12T19:41:47.918Z,102988.72
2023-02-12T19:44:19.064Z,102989.69
2023-02-12T19:46:48.400Z,102988.88
2023-02-12T19:49:24.805Z,102989.88
2023-02-12T19:51:53.817Z,102988.38
2023-02-12T19:54:23.674Z,102998.31
2023-02-12T19:56:52.895Z,103001.03
2023-02-12T19:59:22.658Z,103001.91
2023-02-12T20:01:50.746Z,103014.16
2023-02-12T20:04:20.960Z,103017.00
2023-02-12T20:06:51.106Z,103013.03
2023-02-12T20:09:20.948Z,103023.53
2023-02-12T20:11:48.893Z,103025.44
2023-02-12T20:14:17.422Z,103027.91
2023-02-12T20:16:46.877Z,103023.41
2023-02-12T20:19:23.094Z,103028.13
2023-02-12T20:21:56.133Z,103028.41
2023-02-12T20:24:25.754Z,103034.59
2023-02-12T20:26:54.134Z,103032.25
2023-02-12T20:29:22.967Z,103032.16
2023-02-12T20:31:50.846Z,103035.72
2023-02-12T20:34:20.248Z,103036.56
2023-02-12T20:36:49.268Z,103025.38
2023-02-12T20:39:19.331Z,103034.31
2023-02-12T20:41:48.000Z,103035.38
2023-02-12T20:44:18.404Z,103042.53
2023-02-12T20:46:50.037Z,103045.28
2023-02-12T20:49:20.196Z,103043.56
2023-02-12T20:51:50.035Z,103043.69
2023-02-12T20:54:18.228Z,103046.19
2023-02-12T20:56:46.654Z,103046.97
2023-02-12T20:59:14.369Z,103052.38
2023-02-12T21:01:42.999Z,103050.50
2023-02-12T21:04:16.825Z,103050.34
2023-02-12T21:06:45.854Z,103055.56
2023-02-12T21:09:15.438Z,103059.91
2023-02-12T21:11:45.905Z,103059.25
2023-02-12T21:14:23.953Z,103061.28
2023-02-12T21:16:55.783Z,103059.75
2023-02-12T21:19:24.282Z,103054.38
2023-02-12T21:21:52.687Z,103055.13
2023-02-12T21:24:25.582Z,103066.59
2023-02-12T21:26:54.984Z,103067.44
2023-02-12T21:29:22.611Z,103066.72
2023-02-12T21:31:51.639Z,103066.75
2023-02-12T21:34:23.203Z,103076.31
2023-02-12T21:36:54.530Z,103065.97
2023-02-12T21:39:27.359Z,103082.56
2023-02-12T21:42:02.426Z,103078.31
2023-02-12T21:44:32.663Z,103074.81
2023-02-12T21:47:00.573Z,103079.16
2023-02-12T21:49:29.022Z,103078.31
2023-02-12T21:52:02.034Z,103079.94
2023-02-12T21:54:30.923Z,103081.53
2023-02-12T21:56:59.893Z,103081.56
2023-02-12T21:59:30.135Z,103084.25
2023-02-12T22:02:00.795Z,103087.03
2023-02-12T22:04:29.388Z,103090.63
2023-02-12T22:06:58.098Z,103094.84
2023-02-12T22:09:26.725Z,103105.22
2023-02-12T22:11:54.430Z,103101.94
2023-02-12T22:14:23.003Z,103096.00
2023-02-12T22:16:51.273Z,103090.81
2023-02-12T22:19:19.769Z,103098.69
2023-02-12T22:21:51.340Z,103106.50
2023-02-12T22:24:19.676Z,103104.78
2023-02-12T22:26:47.848Z,103101.22
2023-02-12T22:29:16.446Z,103108.22
2023-02-12T22:31:45.477Z,103103.75
2023-02-12T22:34:18.939Z,103105.53
2023-02-12T22:36:47.753Z,103108.22
2023-02-12T22:39:17.535Z,103114.44
2023-02-12T22:41:46.085Z,103114.59
2023-02-12T22:44:16.585Z,103121.47
2023-02-12T22:46:45.333Z,103128.38
2023-02-12T22:49:14.078Z,103125.69
2023-02-12T22:51:42.526Z,103120.56
2023-02-12T22:54:14.805Z,103124.94
2023-02-12T22:56:43.301Z,103132.69
2023-02-12T22:59:12.494Z,103127.50
2023-02-12T23:01:41.190Z,103136.91
2023-02-12T23:04:15.576Z,103137.69
2023-02-12T23:06:44.076Z,103142.78
2023-02-12T23:09:15.007Z,103138.41
2023-02-12T23:11:43.603Z,103150.63
2023-02-12T23:14:11.529Z,103146.38
2023-02-12T23:16:39.489Z,103143.16
2023-02-12T23:19:07.166Z,103140.53
2023-02-12T23:21:34.998Z,103148.41
2023-02-12T23:24:02.811Z,103157.22
2023-02-12T23:26:31.256Z,103152.13
2023-02-12T23:28:59.898Z,103149.34
2023-02-12T23:31:28.689Z,103150.94
2023-02-12T23:33:56.825Z,103155.31
2023-02-12T23:36:25.038Z,103155.34
2023-02-12T23:38:53.225Z,103150.13
2023-02-12T23:41:21.496Z,103154.56
2023-02-12T23:43:50.016Z,103152.63
2023-02-12T23:46:17.660Z,103155.44
2023-02-12T23:48:45.775Z,103149.31
2023-02-12T23:51:13.890Z,103148.50
2023-02-12T23:53:42.060Z,103146.03
2023-02-12T23:56:10.197Z,103150.38
2023-02-12T23:58:37.981Z,103154.56
